createdAt,value
2022-11-13T00:00:37.952Z,28.90
2022-11-13T00:01:39.498Z,29.77
2022-11-13T00:02:41.126Z,30.40
2022-11-13T00:03:42.683Z,29.77
2022-11-13T00:04:44.208Z,29.63
2022-11-13T00:05:45.792Z,28.48
2022-11-13T00:06:47.431Z,26.75
2022-11-13T00:07:49.053Z,27.75
2022-11-13T00:08:53.623Z,25.93
2022-11-13T00:09:55.424Z,28.17
2022-11-13T00:11:04.696Z,27.08
2022-11-13T00:12:06.269Z,27.35
2022-11-13T00:13:07.833Z,26.58
2022-11-13T00:14:09.366Z,26.88
2022-11-13T00:15:10.984Z,27.70
2022-11-13T00:16:14.125Z,28.83
2022-11-13T00:17:15.687Z,27.48
2022-11-13T00:18:17.245Z,27.90
2022-11-13T00:19:18.795Z,26.20
2022-11-13T00:20:20.485Z,26.13
2022-11-13T00:21:23.743Z,25.52
2022-11-13T00:22:25.320Z,25.17
2022-11-13T00:23:26.943Z,25.88
2022-11-13T00:24:28.546Z,25.40
2022-11-13T00:25:30.089Z,24.95
2022-11-13T00:26:31.730Z,25.15
2022-11-13T00:27:33.285Z,25.50
2022-11-13T00:28:34.896Z,24.10
2022-11-13T00:29:36.443Z,24.33
2022-11-13T00:30:38.017Z,25.65
2022-11-13T00:31:39.614Z,25.75
2022-11-13T00:32:41.196Z,25.08
2022-11-13T00:34:09.052Z,25.73
2022-11-13T00:35:05.306Z,27.02
2022-11-13T00:36:08.660Z,27.33
2022-11-13T00:37:10.202Z,27.10
2022-11-13T00:38:11.880Z,28.38
2022-11-13T00:39:13.426Z,26.02
2022-11-13T00:40:14.975Z,28.03
2022-11-13T00:41:16.529Z,28.58
2022-11-13T00:42:18.053Z,25.02
2022-11-13T00:43:19.654Z,25.55
2022-11-13T00:44:21.220Z,25.42
2022-11-13T00:45:22.756Z,27.40
2022-11-13T00:46:24.325Z,24.30
2022-11-13T00:47:25.868Z,23.98
2022-11-13T00:48:27.702Z,24.83
2022-11-13T00:49:29.440Z,24.75
2022-11-13T00:50:31.017Z,23.97
2022-11-13T00:51:32.614Z,23.88
2022-11-13T00:52:34.173Z,23.10
2022-11-13T00:53:35.835Z,24.05
2022-11-13T00:54:37.444Z,24.52
2022-11-13T00:55:39.022Z,23.02
2022-11-13T00:56:40.591Z,21.38
2022-11-13T00:57:42.145Z,22.48
2022-11-13T00:58:43.797Z,22.48
2022-11-13T00:59:45.399Z,23.08
2022-11-13T01:00:47.515Z,22.53
2022-11-13T01:01:49.132Z,23.38
2022-11-13T01:02:50.713Z,22.27
2022-11-13T01:03:52.305Z,22.52
2022-11-13T01:04:53.919Z,21.40
2022-11-13T01:05:55.484Z,21.13
2022-11-13T01:06:57.141Z,24.20
2022-11-13T01:07:58.731Z,22.40
2022-11-13T01:09:00.347Z,20.15
2022-11-13T01:10:02.595Z,21.40
2022-11-13T01:11:14.864Z,21.53
2022-11-13T01:12:16.452Z,20.45
2022-11-13T01:13:17.983Z,21.98
2022-11-13T01:14:19.539Z,21.25
2022-11-13T01:15:21.137Z,21.85
2022-11-13T01:16:24.865Z,22.08
2022-11-13T01:17:26.852Z,21.20
2022-11-13T01:18:28.662Z,20.70
2022-11-13T01:19:30.487Z,21.02
2022-11-13T01:20:33.135Z,20.67
2022-11-13T01:21:34.701Z,20.27
2022-11-13T01:22:36.259Z,21.58
2022-11-13T01:23:37.828Z,20.40
2022-11-13T01:24:39.379Z,21.15
2022-11-13T01:25:40.997Z,20.38
2022-11-13T01:26:42.557Z,21.95
2022-11-13T01:27:44.342Z,19.25
2022-11-13T01:28:46.279Z,20.17
2022-11-13T01:29:47.837Z,21.30
2022-11-13T01:30:49.457Z,21.35
2022-11-13T01:31:51.033Z,19.90
2022-11-13T01:32:52.631Z,19.05
2022-11-13T01:33:54.525Z,19.60
2022-11-13T01:34:56.060Z,21.48
2022-11-13T01:36:02.328Z,22.00
2022-11-13T01:37:04.038Z,22.10
2022-11-13T01:38:05.599Z,20.58
2022-11-13T01:39:07.167Z,22.23
2022-11-13T01:40:10.828Z,21.65
2022-11-13T01:41:23.757Z,22.50
2022-11-13T01:42:25.618Z,22.13
2022-11-13T01:43:32.302Z,24.60
2022-11-13T01:44:56.521Z,24.77
2022-11-13T01:45:58.038Z,22.75
2022-11-13T01:46:59.655Z,23.20
2022-11-13T01:48:01.250Z,23.00
2022-11-13T01:49:10.473Z,20.90
2022-11-13T01:50:14.268Z,22.90
2022-11-13T01:51:23.738Z,23.48
2022-11-13T01:52:27.323Z,23.83
2022-11-13T01:53:28.949Z,23.97
2022-11-13T01:54:33.287Z,25.58
2022-11-13T01:55:34.863Z,24.02
2022-11-13T01:56:36.448Z,24.73
2022-11-13T01:57:38.144Z,24.05
2022-11-13T01:58:40.150Z,25.10
2022-11-13T01:59:43.664Z,25.00
2022-11-13T02:00:45.246Z,24.08
2022-11-13T02:01:46.853Z,22.98
2022-11-13T02:02:48.430Z,23.08
2022-11-13T02:03:50.068Z,21.37
2022-11-13T02:04:51.619Z,22.10
2022-11-13T02:05:53.272Z,21.45
2022-11-13T02:06:56.810Z,22.48
2022-11-13T02:07:58.467Z,23.50
2022-11-13T02:09:00.061Z,22.70
2022-11-13T02:10:01.640Z,21.45
2022-11-13T02:11:03.193Z,22.92
2022-11-13T02:12:06.239Z,22.70
2022-11-13T02:13:07.821Z,24.88
2022-11-13T02:14:09.724Z,24.83
2022-11-13T02:15:11.285Z,24.05
2022-11-13T02:16:12.844Z,25.75
2022-11-13T02:17:23.037Z,26.55
2022-11-13T02:18:24.733Z,26.15
2022-11-13T02:19:30.779Z,25.35
2022-11-13T02:20:37.972Z,26.35
2022-11-13T02:21:48.362Z,26.92
2022-11-13T02:23:03.006Z,26.02
2022-11-13T02:24:38.101Z,25.92
2022-11-13T02:25:40.634Z,26.13
2022-11-13T02:26:42.186Z,24.02
2022-11-13T02:27:45.723Z,25.80
2022-11-13T02:28:47.374Z,28.27
2022-11-13T02:29:48.912Z,28.05
2022-11-13T02:30:51.423Z,25.05
2022-11-13T02:31:52.983Z,26.10
2022-11-13T02:32:55.368Z,26.30
2022-11-13T02:33:57.075Z,24.85
2022-11-13T02:34:59.367Z,23.15
2022-11-13T02:36:00.949Z,22.83
2022-11-13T02:37:02.486Z,23.83
2022-11-13T02:38:04.980Z,23.25
2022-11-13T02:39:09.399Z,21.10
2022-11-13T02:40:11.404Z,22.75
2022-11-13T02:41:12.967Z,21.65
2022-11-13T02:42:14.660Z,26.15
2022-11-13T02:43:16.222Z,23.02
2022-11-13T02:44:17.783Z,21.45
2022-11-13T02:45:19.416Z,24.00
2022-11-13T02:46:21.000Z,22.03
2022-11-13T02:47:22.557Z,21.55
2022-11-13T02:48:24.104Z,21.15
2022-11-13T02:49:25.650Z,23.13
2022-11-13T02:50:27.440Z,21.70
2022-11-13T02:51:29.002Z,22.42
2022-11-13T02:52:30.899Z,22.50
2022-11-13T02:53:32.764Z,21.48
2022-11-13T02:54:34.324Z,23.15
2022-11-13T02:55:35.988Z,22.38
2022-11-13T02:56:37.537Z,21.43
2022-11-13T02:57:39.086Z,21.77
2022-11-13T02:58:40.777Z,22.38
2022-11-13T02:59:42.438Z,20.60
2022-11-13T03:00:43.999Z,22.80
2022-11-13T03:01:45.812Z,20.08
2022-11-13T03:02:47.579Z,21.25
2022-11-13T03:03:57.404Z,20.40
2022-11-13T03:05:14.765Z,22.10
2022-11-13T03:06:16.383Z,19.20
2022-11-13T03:07:17.999Z,20.23
2022-11-13T03:08:19.927Z,19.98
2022-11-13T03:09:21.486Z,21.13
2022-11-13T03:10:23.053Z,18.60
2022-11-13T03:11:24.691Z,19.73
2022-11-13T03:12:26.295Z,19.67
2022-11-13T03:13:28.013Z,19.52
2022-11-13T03:14:29.556Z,19.35
2022-11-13T03:15:31.087Z,19.15
2022-11-13T03:16:32.728Z,19.20
2022-11-13T03:17:34.548Z,18.57
2022-11-13T03:18:36.136Z,18.13
2022-11-13T03:19:37.722Z,18.75
2022-11-13T03:20:42.870Z,19.80
2022-11-13T03:21:44.462Z,18.48
2022-11-13T03:22:46.000Z,17.88
2022-11-13T03:23:47.594Z,17.20
2022-11-13T03:24:49.128Z,18.25
2022-11-13T03:25:50.664Z,17.70
2022-11-13T03:26:52.199Z,17.15
2022-11-13T03:27:53.738Z,18.43
2022-11-13T03:28:55.451Z,18.00
2022-11-13T03:29:56.985Z,18.27
2022-11-13T03:30:58.520Z,17.42
2022-11-13T03:32:00.075Z,17.98
2022-11-13T03:33:01.750Z,17.58
2022-11-13T03:34:03.372Z,17.77
2022-11-13T03:35:05.531Z,17.70
2022-11-13T03:36:07.316Z,16.50
2022-11-13T03:37:08.910Z,17.80
2022-11-13T03:38:10.456Z,15.70
2022-11-13T03:39:12.051Z,17.40
2022-11-13T03:40:13.607Z,15.55
2022-11-13T03:41:15.143Z,15.60
2022-11-13T03:42:16.692Z,15.13
2022-11-13T03:43:18.376Z,16.27
2022-11-13T03:44:19.937Z,15.80
2022-11-13T03:45:21.498Z,15.90
2022-11-13T03:46:23.126Z,16.92
2022-11-13T03:47:24.697Z,15.65
2022-11-13T03:48:26.684Z,15.87
2022-11-13T03:49:28.495Z,16.23
2022-11-13T03:50:30.035Z,15.65
2022-11-13T03:51:31.594Z,15.95
2022-11-13T03:52:33.189Z,16.23
2022-11-13T03:53:34.843Z,15.40
2022-11-13T03:54:36.381Z,15.88
2022-11-13T03:55:38.023Z,14.98
2022-11-13T03:56:39.574Z,15.23
2022-11-13T03:57:41.125Z,15.80
2022-11-13T03:58:47.081Z,15.13
2022-11-13T03:59:50.943Z,15.40
2022-11-13T04:00:54.472Z,14.88
2022-11-13T04:01:56.616Z,16.23
2022-11-13T04:02:58.272Z,17.08
2022-11-13T04:03:59.883Z,16.38
2022-11-13T04:05:01.474Z,16.10
2022-11-13T04:06:03.129Z,16.55
2022-11-13T04:07:04.730Z,16.90
2022-11-13T04:08:06.481Z,15.25
2022-11-13T04:09:08.066Z,16.93
2022-11-13T04:10:09.796Z,16.10
2022-11-13T04:11:12.382Z,16.27
2022-11-13T04:12:13.965Z,16.27
2022-11-13T04:13:15.531Z,16.25
2022-11-13T04:14:17.071Z,17.80
2022-11-13T04:15:18.716Z,16.23
2022-11-13T04:16:20.344Z,17.00
2022-11-13T04:17:21.901Z,16.13
2022-11-13T04:18:23.434Z,16.50
2022-11-13T04:19:24.971Z,16.70
2022-11-13T04:20:27.966Z,16.73
2022-11-13T04:21:29.611Z,16.50
2022-11-13T04:22:31.165Z,17.58
2022-11-13T04:23:32.713Z,16.75
2022-11-13T04:24:34.259Z,17.13
2022-11-13T04:25:35.844Z,15.88
2022-11-13T04:26:37.454Z,17.63
2022-11-13T04:27:39.092Z,17.40
2022-11-13T04:28:40.663Z,17.70
2022-11-13T04:29:42.208Z,19.60
2022-11-13T04:30:43.770Z,16.45
2022-11-13T04:31:45.324Z,16.88
2022-11-13T04:32:46.983Z,17.38
2022-11-13T04:33:48.719Z,16.88
2022-11-13T04:34:50.264Z,16.33
2022-11-13T04:35:51.807Z,16.70
2022-11-13T04:36:53.363Z,17.42
2022-11-13T04:37:55.010Z,16.98
2022-11-13T04:38:56.564Z,16.63
2022-11-13T04:39:58.114Z,16.10
2022-11-13T04:41:19.056Z,16.88
2022-11-13T04:42:39.448Z,17.30
2022-11-13T04:43:41.008Z,17.33
2022-11-13T04:44:42.569Z,18.35
2022-11-13T04:45:44.119Z,17.98
2022-11-13T04:46:45.746Z,19.00
2022-11-13T04:47:47.302Z,17.50
2022-11-13T04:48:48.896Z,18.08
2022-11-13T04:49:50.455Z,18.50
2022-11-13T04:50:51.993Z,19.33
2022-11-13T04:51:53.585Z,18.20
2022-11-13T04:52:55.150Z,18.65
2022-11-13T04:53:56.863Z,17.55
2022-11-13T04:54:58.548Z,17.67
2022-11-13T04:56:00.185Z,16.63
2022-11-13T04:57:01.755Z,18.17
2022-11-13T04:58:03.300Z,17.80
2022-11-13T04:59:04.930Z,18.13
2022-11-13T05:00:07.226Z,19.75
2022-11-13T05:01:08.799Z,18.10
2022-11-13T05:02:10.355Z,19.63
2022-11-13T05:03:11.903Z,20.38
2022-11-13T05:04:14.142Z,20.83
2022-11-13T05:05:15.717Z,19.55
2022-11-13T05:06:17.276Z,18.60
2022-11-13T05:07:18.887Z,18.35
2022-11-13T05:08:20.468Z,21.08
2022-11-13T05:09:22.066Z,19.48
2022-11-13T05:10:23.601Z,18.67
2022-11-13T05:11:25.213Z,19.40
2022-11-13T05:12:26.780Z,22.35
2022-11-13T05:13:31.110Z,20.60
2022-11-13T05:14:32.666Z,21.73
2022-11-13T05:15:34.220Z,21.75
2022-11-13T05:16:36.594Z,21.73
2022-11-13T05:17:38.125Z,22.02
2022-11-13T05:18:39.693Z,23.20
2022-11-13T05:19:41.253Z,22.80
2022-11-13T05:20:42.804Z,22.20
2022-11-13T05:21:44.400Z,21.47
2022-11-13T05:22:45.949Z,23.10
2022-11-13T05:23:47.567Z,22.40
2022-11-13T05:24:49.204Z,23.27
2022-11-13T05:25:50.989Z,25.20
2022-11-13T05:26:52.550Z,22.58
2022-11-13T05:27:54.151Z,24.73
2022-11-13T05:28:59.385Z,22.30
2022-11-13T05:30:00.942Z,19.58
2022-11-13T05:31:10.325Z,19.95
2022-11-13T05:32:12.331Z,20.10
2022-11-13T05:33:13.930Z,18.80
2022-11-13T05:34:15.835Z,20.50
2022-11-13T05:35:17.363Z,19.52
2022-11-13T05:36:19.453Z,18.10
2022-11-13T05:37:21.001Z,20.88
2022-11-13T05:38:22.543Z,18.25
2022-11-13T05:39:24.221Z,20.42
2022-11-13T05:40:25.754Z,18.38
2022-11-13T05:41:27.308Z,17.92
2022-11-13T05:42:28.855Z,18.33
2022-11-13T05:43:30.443Z,18.45
2022-11-13T05:44:32.152Z,20.73
2022-11-13T05:45:33.707Z,18.35
2022-11-13T05:46:35.268Z,21.30
2022-11-13T05:47:36.864Z,21.60
2022-11-13T05:48:38.446Z,21.05
2022-11-13T05:49:39.987Z,20.75
2022-11-13T05:50:41.533Z,20.60
2022-11-13T05:51:43.149Z,18.40
2022-11-13T05:52:44.705Z,18.33
2022-11-13T05:53:46.308Z,19.15
2022-11-13T05:54:47.863Z,18.38
2022-11-13T05:55:49.406Z,19.83
2022-11-13T05:56:51.021Z,19.52
2022-11-13T05:57:52.569Z,21.73
2022-11-13T05:58:54.670Z,21.75
2022-11-13T05:59:56.256Z,21.42
2022-11-13T06:01:21.655Z,22.15
2022-11-13T06:02:23.293Z,19.48
2022-11-13T06:03:24.866Z,18.57
2022-11-13T06:04:26.415Z,18.77
2022-11-13T06:05:27.956Z,19.42
2022-11-13T06:06:30.155Z,18.77
2022-11-13T06:07:31.703Z,21.15
2022-11-13T06:08:33.388Z,21.15
2022-11-13T06:09:34.949Z,19.15
2022-11-13T06:10:36.534Z,20.38
2022-11-13T06:11:38.087Z,19.85
2022-11-13T06:12:39.687Z,24.23
2022-11-13T06:13:41.302Z,26.03
2022-11-13T06:14:42.834Z,23.67
2022-11-13T06:15:44.389Z,19.90
2022-11-13T06:16:45.986Z,19.33
2022-11-13T06:17:47.581Z,18.23
2022-11-13T06:18:49.299Z,20.17
2022-11-13T06:19:50.882Z,20.48
2022-11-13T06:20:52.541Z,18.90
2022-11-13T06:21:54.143Z,19.02
2022-11-13T06:22:55.695Z,20.30
2022-11-13T06:23:58.013Z,20.47
2022-11-13T06:24:59.555Z,20.83
2022-11-13T06:26:02.722Z,18.88
2022-11-13T06:27:04.351Z,18.77
2022-11-13T06:28:06.007Z,20.30
2022-11-13T06:29:08.399Z,17.98
2022-11-13T06:30:10.560Z,18.38
2022-11-13T06:31:14.164Z,18.05
2022-11-13T06:32:15.827Z,17.35
2022-11-13T06:33:17.388Z,17.63
2022-11-13T06:34:19.269Z,18.93
2022-11-13T06:35:20.812Z,18.48
2022-11-13T06:36:26.614Z,17.70
2022-11-13T06:37:30.534Z,17.38
2022-11-13T06:38:38.095Z,18.13
2022-11-13T06:39:39.693Z,18.88
2022-11-13T06:40:41.256Z,17.40
2022-11-13T06:41:42.796Z,18.90
2022-11-13T06:42:44.419Z,18.00
2022-11-13T06:43:47.415Z,20.40
2022-11-13T06:44:48.978Z,17.57
2022-11-13T06:45:50.523Z,19.48
2022-11-13T06:46:52.119Z,17.50
2022-11-13T06:47:54.192Z,18.25
2022-11-13T06:48:55.830Z,18.33
2022-11-13T06:49:57.397Z,17.45
2022-11-13T06:51:05.804Z,18.20
2022-11-13T06:52:07.522Z,16.67
2022-11-13T06:53:09.169Z,20.38
2022-11-13T06:54:10.852Z,18.20
2022-11-13T06:55:12.486Z,17.90
2022-11-13T06:56:14.140Z,18.60
2022-11-13T06:57:15.676Z,19.08
2022-11-13T06:58:17.281Z,17.17
2022-11-13T06:59:18.892Z,17.98
2022-11-13T07:00:20.542Z,17.63
2022-11-13T07:01:24.225Z,16.70
2022-11-13T07:02:25.985Z,17.67
2022-11-13T07:03:27.578Z,16.77
2022-11-13T07:04:29.211Z,16.95
2022-11-13T07:05:30.758Z,17.70
2022-11-13T07:06:36.165Z,18.20
2022-11-13T07:07:40.732Z,17.33
2022-11-13T07:08:42.748Z,17.75
2022-11-13T07:09:44.354Z,17.08
2022-11-13T07:10:52.973Z,18.00
2022-11-13T07:11:54.521Z,17.70
2022-11-13T07:12:59.138Z,18.30
2022-11-13T07:14:00.710Z,20.35
2022-11-13T07:15:02.309Z,18.67
2022-11-13T07:16:15.905Z,21.87
2022-11-13T07:17:18.799Z,19.38
2022-11-13T07:18:24.927Z,18.45
2022-11-13T07:19:26.740Z,18.92
2022-11-13T07:20:29.275Z,19.23
2022-11-13T07:21:30.917Z,21.67
2022-11-13T07:22:32.468Z,25.20
2022-11-13T07:23:34.878Z,32.58
2022-11-13T07:24:36.482Z,26.75
2022-11-13T07:25:38.054Z,22.20
2022-11-13T07:26:39.649Z,24.00
2022-11-13T07:27:45.094Z,21.67
2022-11-13T07:28:46.883Z,21.73
2022-11-13T07:29:48.482Z,23.42
2022-11-13T07:30:50.062Z,19.60
2022-11-13T07:31:51.764Z,21.17
2022-11-13T07:32:53.374Z,21.20
2022-11-13T07:33:55.214Z,22.90
2022-11-13T07:34:56.773Z,21.02
2022-11-13T07:35:58.743Z,21.17
2022-11-13T07:37:00.348Z,20.87
2022-11-13T07:38:01.936Z,21.63
2022-11-13T07:39:03.471Z,22.95
2022-11-13T07:40:05.553Z,22.65
2022-11-13T07:41:07.263Z,21.45
2022-11-13T07:42:08.877Z,22.33
2022-11-13T07:43:10.497Z,24.30
2022-11-13T07:44:18.440Z,20.00
2022-11-13T07:45:33.583Z,19.85
2022-11-13T07:46:35.173Z,21.13
2022-11-13T07:47:36.824Z,24.50
2022-11-13T07:48:38.374Z,27.25
2022-11-13T07:49:39.984Z,25.40
2022-11-13T07:50:41.582Z,29.02
2022-11-13T07:51:43.122Z,38.28
2022-11-13T07:52:44.740Z,29.23
2022-11-13T07:53:46.316Z,28.83
2022-11-13T07:54:48.010Z,23.42
2022-11-13T07:55:49.628Z,20.48
2022-11-13T07:56:51.174Z,19.95
2022-11-13T07:57:56.388Z,20.30
2022-11-13T07:58:57.956Z,21.83
2022-11-13T07:59:59.634Z,21.17
2022-11-13T08:01:03.302Z,19.70
2022-11-13T08:02:04.947Z,20.13
2022-11-13T08:03:11.970Z,19.50
2022-11-13T08:04:13.558Z,24.98
2022-11-13T08:05:15.522Z,24.77
2022-11-13T08:06:17.258Z,30.27
2022-11-13T08:07:18.863Z,26.50
2022-11-13T08:08:20.423Z,30.40
2022-11-13T08:09:22.075Z,27.02
2022-11-13T08:10:23.659Z,29.83
2022-11-13T08:11:25.218Z,27.17
2022-11-13T08:12:26.778Z,27.17
2022-11-13T08:13:28.327Z,28.42
2022-11-13T08:14:29.955Z,24.80
2022-11-13T08:15:31.540Z,29.60
2022-11-13T08:16:33.137Z,28.80
2022-11-13T08:17:34.689Z,23.98
2022-11-13T08:18:36.220Z,23.60
2022-11-13T08:19:37.848Z,31.08
2022-11-13T08:20:39.450Z,27.55
2022-11-13T08:21:41.005Z,28.63
2022-11-13T08:22:42.560Z,25.85
2022-11-13T08:23:44.096Z,22.92
2022-11-13T08:24:45.713Z,31.20
2022-11-13T08:25:47.440Z,27.67
2022-11-13T08:26:49.043Z,22.95
2022-11-13T08:27:52.541Z,22.90
2022-11-13T08:28:54.159Z,20.40
2022-11-13T08:29:55.822Z,25.00
2022-11-13T08:30:57.375Z,21.95
2022-11-13T08:31:59.005Z,24.73
2022-11-13T08:33:00.867Z,28.25
2022-11-13T08:34:02.649Z,21.33
2022-11-13T08:35:04.463Z,22.52
2022-11-13T08:36:06.221Z,24.45
2022-11-13T08:37:07.832Z,27.17
2022-11-13T08:38:09.410Z,26.48
2022-11-13T08:39:11.028Z,23.70
2022-11-13T08:40:12.743Z,25.05
2022-11-13T08:41:14.380Z,24.67
2022-11-13T08:42:16.092Z,25.65
2022-11-13T08:43:17.750Z,23.67
2022-11-13T08:44:19.351Z,23.83
2022-11-13T08:45:20.915Z,26.92
2022-11-13T08:46:22.483Z,33.13
2022-11-13T08:47:29.209Z,29.33
2022-11-13T08:48:31.325Z,24.45
2022-11-13T08:49:33.189Z,23.13
2022-11-13T08:50:34.859Z,22.80
2022-11-13T08:51:36.407Z,28.10
2022-11-13T08:52:38.016Z,28.20
2022-11-13T08:53:39.613Z,22.58
2022-11-13T08:54:41.753Z,22.10
2022-11-13T08:55:43.305Z,21.27
2022-11-13T08:56:51.517Z,23.77
2022-11-13T08:58:01.109Z,21.77
2022-11-13T08:59:02.655Z,21.90
2022-11-13T09:00:05.952Z,20.87
2022-11-13T09:01:07.529Z,21.92
2022-11-13T09:02:14.269Z,18.83
2022-11-13T09:03:15.880Z,19.75
2022-11-13T09:04:17.447Z,19.17
2022-11-13T09:05:19.907Z,19.48
2022-11-13T09:06:21.475Z,21.15
2022-11-13T09:07:27.189Z,19.75
2022-11-13T09:08:31.159Z,19.48
2022-11-13T09:09:34.556Z,19.52
2022-11-13T09:10:36.155Z,20.70
2022-11-13T09:11:38.205Z,21.45
2022-11-13T09:12:39.760Z,22.90
2022-11-13T09:13:44.514Z,21.33
2022-11-13T09:14:48.169Z,20.17
2022-11-13T09:15:49.732Z,19.60
2022-11-13T09:16:51.282Z,18.35
2022-11-13T09:17:56.401Z,20.67
2022-11-13T09:18:57.952Z,20.77
2022-11-13T09:20:03.760Z,21.08
2022-11-13T09:21:06.156Z,20.87
2022-11-13T09:22:07.769Z,20.00
2022-11-13T09:23:09.471Z,19.77
2022-11-13T09:24:11.059Z,19.42
2022-11-13T09:25:12.676Z,23.02
2022-11-13T09:26:14.221Z,23.63
2022-11-13T09:27:15.830Z,22.15
2022-11-13T09:28:17.491Z,21.70
2022-11-13T09:29:19.401Z,21.05
2022-11-13T09:30:21.066Z,20.02
2022-11-13T09:31:22.616Z,21.07
2022-11-13T09:32:24.227Z,19.65
2022-11-13T09:33:25.846Z,18.33
2022-11-13T09:34:27.835Z,18.60
2022-11-13T09:35:36.126Z,19.90
2022-11-13T09:36:37.689Z,18.48
2022-11-13T09:37:39.232Z,20.08
2022-11-13T09:38:41.066Z,20.42
2022-11-13T09:39:42.609Z,20.00
2022-11-13T09:40:49.060Z,19.70
2022-11-13T09:41:53.968Z,18.03
2022-11-13T09:42:55.510Z,19.30
2022-11-13T09:44:00.283Z,20.17
2022-11-13T09:45:10.393Z,20.95
2022-11-13T09:46:23.945Z,20.45
2022-11-13T09:47:29.185Z,20.33
2022-11-13T09:48:44.131Z,21.15
2022-11-13T09:50:00.875Z,20.80
2022-11-13T09:51:06.701Z,20.10
2022-11-13T09:52:16.935Z,18.67
2022-11-13T09:53:18.494Z,18.97
2022-11-13T09:54:20.437Z,19.77
2022-11-13T09:55:26.299Z,19.23
2022-11-13T09:56:33.771Z,20.38
2022-11-13T09:57:41.119Z,20.92
2022-11-13T09:58:52.658Z,19.75
2022-11-13T09:59:59.354Z,20.17
2022-11-13T10:01:01.417Z,20.65
2022-11-13T10:02:13.795Z,21.08
2022-11-13T10:03:59.369Z,21.63
2022-11-13T10:04:56.183Z,20.00
2022-11-13T10:06:00.313Z,20.30
2022-11-13T10:07:29.710Z,21.75
2022-11-13T10:08:43.579Z,20.13
2022-11-13T10:10:09.963Z,20.92
2022-11-13T10:11:39.280Z,20.75
2022-11-13T10:12:40.832Z,20.52
2022-11-13T10:13:47.701Z,20.77
2022-11-13T10:14:51.464Z,19.63
2022-11-13T10:16:02.236Z,20.85
2022-11-13T10:17:28.828Z,22.00
2022-11-13T10:18:32.358Z,21.42
2022-11-13T10:19:43.241Z,21.58
2022-11-13T10:20:55.803Z,20.10
2022-11-13T10:22:31.665Z,22.15
2022-11-13T10:23:34.408Z,21.83
2022-11-13T10:24:41.078Z,22.23
2022-11-13T10:25:43.627Z,23.05
2022-11-13T10:26:45.173Z,22.33
2022-11-13T10:27:57.425Z,22.58
2022-11-13T10:29:05.845Z,22.33
2022-11-13T10:30:15.065Z,24.00
2022-11-13T10:31:16.613Z,22.40
2022-11-13T10:32:29.479Z,24.05
2022-11-13T10:33:31.334Z,22.50
2022-11-13T10:34:33.534Z,23.30
2022-11-13T10:35:50.513Z,22.50
2022-11-13T10:37:03.235Z,23.27
2022-11-13T10:38:08.859Z,23.85
2022-11-13T10:39:10.855Z,23.35
2022-11-13T10:40:12.467Z,24.97
2022-11-13T10:41:15.894Z,23.73
2022-11-13T10:42:24.689Z,24.02
2022-11-13T10:43:26.647Z,23.50
2022-11-13T10:44:36.148Z,24.98
2022-11-13T10:45:37.705Z,24.23
2022-11-13T10:46:39.320Z,24.95
2022-11-13T10:48:05.452Z,23.58
2022-11-13T10:49:21.696Z,22.98
2022-11-13T10:50:28.410Z,22.42
2022-11-13T10:51:31.610Z,24.33
2022-11-13T10:52:33.920Z,25.45
2022-11-13T10:53:40.203Z,24.67
2022-11-13T10:54:41.760Z,24.52
2022-11-13T10:55:43.364Z,25.30
2022-11-13T10:56:44.987Z,23.88
2022-11-13T10:57:58.480Z,23.85
2022-11-13T10:59:20.369Z,25.98
2022-11-13T11:00:32.524Z,27.17
2022-11-13T11:01:34.104Z,24.30
2022-11-13T11:02:35.815Z,24.93
2022-11-13T11:03:37.376Z,25.00
2022-11-13T11:04:38.932Z,25.45
2022-11-13T11:05:40.606Z,26.05
2022-11-13T11:07:18.442Z,25.70
2022-11-13T11:08:08.823Z,26.13
2022-11-13T11:09:13.542Z,24.98
2022-11-13T11:10:19.450Z,25.48
2022-11-13T11:11:39.382Z,26.67
2022-11-13T11:12:40.937Z,25.95
2022-11-13T11:13:43.756Z,26.10
2022-11-13T11:14:58.349Z,25.40
2022-11-13T11:16:01.752Z,25.88
2022-11-13T11:17:03.459Z,27.23
2022-11-13T11:18:18.643Z,25.63
2022-11-13T11:19:22.397Z,26.02
2022-11-13T11:20:59.738Z,28.08
2022-11-13T11:22:24.305Z,26.58
2022-11-13T11:23:36.577Z,27.58
2022-11-13T11:24:41.228Z,28.30
2022-11-13T11:25:46.731Z,26.67
2022-11-13T11:26:57.312Z,25.73
2022-11-13T11:28:19.123Z,27.45
2022-11-13T11:30:05.786Z,26.58
2022-11-13T11:31:26.692Z,29.17
2022-11-13T11:32:31.620Z,26.67
2022-11-13T11:33:39.781Z,28.10
2022-11-13T11:34:44.719Z,27.70
2022-11-13T11:35:57.837Z,26.20
2022-11-13T11:37:19.061Z,26.20
2022-11-13T11:38:33.863Z,24.23
2022-11-13T11:39:44.520Z,24.65
2022-11-13T11:40:48.402Z,24.90
2022-11-13T11:41:54.863Z,23.67
2022-11-13T11:43:14.954Z,23.83
2022-11-13T11:44:31.369Z,24.83
2022-11-13T11:45:39.594Z,24.00
2022-11-13T11:46:46.418Z,24.90
2022-11-13T11:47:48.379Z,24.20
2022-11-13T11:48:50.297Z,23.05
2022-11-13T11:49:51.890Z,23.33
2022-11-13T11:51:17.446Z,23.33
2022-11-13T11:52:34.225Z,22.80
2022-11-13T11:54:23.467Z,22.70
2022-11-13T11:55:51.019Z,22.27
2022-11-13T11:56:53.967Z,22.35
2022-11-13T11:57:59.620Z,21.98
2022-11-13T11:59:04.093Z,22.83
2022-11-13T12:00:25.962Z,21.75
2022-11-13T12:01:33.555Z,24.10
2022-11-13T12:02:51.244Z,23.67
2022-11-13T12:04:06.590Z,22.88
2022-11-13T12:05:24.067Z,23.90
2022-11-13T12:06:47.487Z,23.55
2022-11-13T12:08:00.979Z,25.15
2022-11-13T12:09:19.874Z,24.08
2022-11-13T12:10:38.478Z,21.77
2022-11-13T12:11:47.347Z,22.77
2022-11-13T12:13:09.939Z,22.75
2022-11-13T12:14:26.110Z,22.58
2022-11-13T12:15:56.789Z,22.03
2022-11-13T12:17:27.951Z,20.63
2022-11-13T12:19:02.211Z,21.42
2022-11-13T12:20:19.357Z,21.98
2022-11-13T12:21:48.557Z,22.08
2022-11-13T12:22:59.012Z,22.27
2022-11-13T12:24:40.472Z,21.75
2022-11-13T12:25:46.660Z,22.15
2022-11-13T12:26:50.869Z,23.98
2022-11-13T12:28:06.673Z,23.02
2022-11-13T12:29:33.951Z,24.07
2022-11-13T12:30:53.388Z,22.23
2022-11-13T12:32:04.810Z,21.77
2022-11-13T12:33:21.903Z,21.27
2022-11-13T12:34:29.823Z,21.33
2022-11-13T12:35:32.154Z,18.73
2022-11-13T12:36:33.815Z,20.38
2022-11-13T12:37:51.205Z,21.98
2022-11-13T12:38:57.114Z,20.65
2022-11-13T12:40:03.789Z,20.58
2022-11-13T12:41:09.747Z,20.97
2022-11-13T12:42:25.890Z,22.00
2022-11-13T12:43:46.226Z,22.25
2022-11-13T12:45:02.578Z,20.88
2022-11-13T12:46:10.871Z,22.20
2022-11-13T12:47:12.477Z,21.45
2022-11-13T12:48:36.940Z,21.25
2022-11-13T12:49:38.566Z,20.20
2022-11-13T12:50:40.136Z,20.08
2022-11-13T12:51:42.227Z,20.85
2022-11-13T12:52:44.089Z,20.67
2022-11-13T12:53:47.195Z,20.27
2022-11-13T12:54:48.967Z,21.55
2022-11-13T12:56:28.849Z,20.92
2022-11-13T12:57:31.543Z,21.15
2022-11-13T12:58:33.163Z,22.40
2022-11-13T12:59:37.015Z,23.58
2022-11-13T13:00:39.677Z,21.45
2022-11-13T13:02:07.560Z,21.13
2022-11-13T13:03:27.425Z,20.63
2022-11-13T13:04:55.062Z,20.50
2022-11-13T13:06:27.469Z,19.92
2022-11-13T13:07:41.339Z,19.00
2022-11-13T13:09:01.773Z,20.00
2022-11-13T13:10:30.394Z,18.75
2022-11-13T13:12:07.562Z,18.60
2022-11-13T13:13:24.419Z,18.35
2022-11-13T13:14:35.689Z,18.60
2022-11-13T13:15:41.984Z,19.02
2022-11-13T13:16:43.557Z,18.90
2022-11-13T13:17:45.155Z,19.17
2022-11-13T13:18:46.778Z,20.27
2022-11-13T13:20:01.500Z,19.30
2022-11-13T13:21:10.784Z,19.08
2022-11-13T13:22:25.794Z,18.92
2022-11-13T13:23:31.676Z,19.52
2022-11-13T13:24:35.003Z,19.05
2022-11-13T13:25:36.664Z,18.45
2022-11-13T13:26:44.943Z,18.10
2022-11-13T13:27:46.504Z,19.42
2022-11-13T13:28:51.978Z,19.67
2022-11-13T13:29:53.683Z,19.77
2022-11-13T13:31:05.509Z,21.38
2022-11-13T13:32:22.541Z,20.08
2022-11-13T13:33:37.826Z,18.73
2022-11-13T13:35:04.339Z,18.90
2022-11-13T13:36:27.560Z,19.67
2022-11-13T13:37:52.775Z,20.38
2022-11-13T13:38:58.694Z,19.27
2022-11-13T13:40:27.256Z,20.15
2022-11-13T13:41:53.510Z,19.47
2022-11-13T13:43:32.551Z,19.27
2022-11-13T13:44:55.203Z,20.23
2022-11-13T13:46:16.746Z,18.83
2022-11-13T13:47:40.527Z,20.15
2022-11-13T13:48:43.731Z,20.95
2022-11-13T13:49:45.327Z,20.88
2022-11-13T13:50:48.036Z,22.60
2022-11-13T13:51:51.661Z,23.27
2022-11-13T13:52:55.976Z,24.95
2022-11-13T13:53:59.374Z,22.30
2022-11-13T13:55:05.124Z,21.30
2022-11-13T13:56:10.080Z,20.95
2022-11-13T13:57:15.294Z,22.17
2022-11-13T13:58:19.621Z,21.17